sensor_id;sensor_type;location;lat;lon;timestamp;pressure;altitude;pressure_sealevel;temperature;humidity
74790;BME280;63318;52.406;13.416;2023-04-15T00:00:06;100177.20;;;8.17;86.71
74790;BME280;63318;52.406;13.416;2023-04-15T00:02:34;100172.39;;;8.16;86.88
74790;BME280;63318;52.406;13.416;2023-04-15T00:05:03;100173.38;;;8.16;86.90
74790;BME280;63318;52.406;13.416;2023-04-15T00:07:33;100179.08;;;8.16;86.96
74790;BME280;63318;52.406;13.416;2023-04-15T00:10:01;100176.86;;;8.16;86.74
74790;BME280;63318;52.406;13.416;2023-04-15T00:12:30;100176.15;;;8.16;86.81
74790;BME280;63318;52.406;13.416;2023-04-15T00:14:59;100172.33;;;8.16;86.76
74790;BME280;63318;52.406;13.416;2023-04-15T00:17:27;100169.51;;;8.15;86.90
74790;BME280;63318;52.406;13.416;2023-04-15T00:19:55;100170.29;;;8.15;86.94
74790;BME280;63318;52.406;13.416;2023-04-15T00:22:24;100171.11;;;8.16;87.05
74790;BME280;63318;52.406;13.416;2023-04-15T00:24:53;100166.20;;;8.15;87.04
74790;BME280;63318;52.406;13.416;2023-04-15T00:27:22;100167.97;;;8.15;86.92
74790;BME280;63318;52.406;13.416;2023-04-15T00:29:50;100158.61;;;8.15;86.98
74790;BME280;63318;52.406;13.416;2023-04-15T00:32:19;100157.78;;;8.15;86.91
74790;BME280;63318;52.406;13.416;2023-04-15T00:34:48;100159.77;;;8.15;87.05
74790;BME280;63318;52.406;13.416;2023-04-15T00:37:17;100155.79;;;8.14;87.03
74790;BME280;63318;52.406;13.416;2023-04-15T00:39:46;100166.80;;;8.15;86.84
74790;BME280;63318;52.406;13.416;2023-04-15T00:42:15;100164.91;;;8.14;86.93
74790;BME280;63318;52.406;13.416;2023-04-15T00:44:43;100160.43;;;8.15;86.97
74790;BME280;63318;52.406;13.416;2023-04-15T00:47:12;100160.77;;;8.14;87.14
74790;BME280;63318;52.406;13.416;2023-04-15T00:49:40;100158.20;;;8.13;86.95
74790;BME280;63318;52.406;13.416;2023-04-15T00:52:09;100157.38;;;8.13;86.95
74790;BME280;63318;52.406;13.416;2023-04-15T00:54:38;100151.18;;;8.12;86.99
74790;BME280;63318;52.406;13.416;2023-04-15T00:57:08;100153.95;;;8.13;87.14
74790;BME280;63318;52.406;13.416;2023-04-15T00:59:37;100150.79;;;8.13;87.26
74790;BME280;63318;52.406;13.416;2023-04-15T01:02:06;100149.52;;;8.12;87.06
74790;BME280;63318;52.406;13.416;2023-04-15T01:04:34;100148.30;;;8.12;87.05
74790;BME280;63318;52.406;13.416;2023-04-15T01:07:03;100147.46;;;8.12;86.90
74790;BME280;63318;52.406;13.416;2023-04-15T01:09:33;100146.58;;;8.11;87.13
74790;BME280;63318;52.406;13.416;2023-04-15T01:12:02;100145.30;;;8.11;87.16
74790;BME280;63318;52.406;13.416;2023-04-15T01:14:32;100142.93;;;8.11;87.09
74790;BME280;63318;52.406;13.416;2023-04-15T01:17:01;100141.72;;;8.12;87.23
74790;BME280;63318;52.406;13.416;2023-04-15T01:19:29;100142.66;;;8.12;87.33
74790;BME280;63318;52.406;13.416;2023-04-15T01:21:58;100140.06;;;8.12;87.08
74790;BME280;63318;52.406;13.416;2023-04-15T01:24:28;100139.08;;;8.12;86.98
74790;BME280;63318;52.406;13.416;2023-04-15T01:26:58;100139.84;;;8.12;87.32
74790;BME280;63318;52.406;13.416;2023-04-15T01:29:26;100135.58;;;8.12;86.93
74790;BME280;63318;52.406;13.416;2023-04-15T01:31:56;100129.93;;;8.12;87.11
74790;BME280;63318;52.406;13.416;2023-04-15T01:34:25;100140.16;;;8.11;87.00
74790;BME280;63318;52.406;13.416;2023-04-15T01:36:54;100142.21;;;8.11;87.16
74790;BME280;63318;52.406;13.416;2023-04-15T01:39:22;100136.56;;;8.11;87.14
74790;BME280;63318;52.406;13.416;2023-04-15T01:41:52;100129.98;;;8.09;87.27
74790;BME280;63318;52.406;13.416;2023-04-15T01:44:20;100136.84;;;8.09;87.05
74790;BME280;63318;52.406;13.416;2023-04-15T01:46:49;100136.02;;;8.09;87.19
74790;BME280;63318;52.406;13.416;2023-04-15T01:49:18;100136.52;;;8.09;86.87
74790;BME280;63318;52.406;13.416;2023-04-15T01:51:48;100130.54;;;8.08;87.20
74790;BME280;63318;52.406;13.416;2023-04-15T01:54:18;100132.74;;;8.09;87.27
74790;BME280;63318;52.406;13.416;2023-04-15T01:56:46;100133.69;;;8.08;87.21
74790;BME280;63318;52.406;13.416;2023-04-15T01:59:14;100135.13;;;8.09;87.21
74790;BME280;63318;52.406;13.416;2023-04-15T02:01:43;100133.41;;;8.09;87.07
74790;BME280;63318;52.406;13.416;2023-04-15T02:04:12;100125.99;;;8.08;87.22
74790;BME280;63318;52.406;13.416;2023-04-15T02:06:41;100125.23;;;8.08;87.24
74790;BME280;63318;52.406;13.416;2023-04-15T02:09:09;100134.14;;;8.08;87.20
74790;BME280;63318;52.406;13.416;2023-04-15T02:11:38;100126.99;;;8.08;87.26
74790;BME280;63318;52.406;13.416;2023-04-15T02:14:06;100127.87;;;8.07;87.30
74790;BME280;63318;52.406;13.416;2023-04-15T02:16:35;100127.80;;;8.06;87.54
74790;BME280;63318;52.406;13.416;2023-04-15T02:19:03;100122.77;;;8.05;87.24
74790;BME280;63318;52.406;13.416;2023-04-15T02:21:31;100127.58;;;8.04;87.31
74790;BME280;63318;52.406;13.416;2023-04-15T02:24:00;100124.44;;;8.02;87.09
74790;BME280;63318;52.406;13.416;2023-04-15T02:26:29;100120.89;;;8.02;87.26
74790;BME280;63318;52.406;13.416;2023-04-15T02:28:59;100122.38;;;8.01;87.43
74790;BME280;63318;52.406;13.416;2023-04-15T02:31:29;100121.38;;;8.00;87.33
74790;BME280;63318;52.406;13.416;2023-04-15T02:33:57;100120.49;;;8.00;87.27
74790;BME280;63318;52.406;13.416;2023-04-15T02:36:26;100122.27;;;7.99;87.41
74790;BME280;63318;52.406;13.416;2023-04-15T02:38:55;100119.06;;;7.99;87.39
74790;BME280;63318;52.406;13.416;2023-04-15T02:41:24;100120.66;;;7.98;87.51
74790;BME280;63318;52.406;13.416;2023-04-15T02:43:52;100125.41;;;7.98;87.38
74790;BME280;63318;52.406;13.416;2023-04-15T02:46:21;100120.39;;;7.98;87.51
74790;BME280;63318;52.406;13.416;2023-04-15T02:48:50;100125.42;;;7.98;87.45
74790;BME280;63318;52.406;13.416;2023-04-15T02:51:20;100127.19;;;7.99;87.44
74790;BME280;63318;52.406;13.416;2023-04-15T02:53:49;100127.09;;;8.00;87.56
74790;BME280;63318;52.406;13.416;2023-04-15T02:56:18;100129.47;;;8.01;87.42
74790;BME280;63318;52.406;13.416;2023-04-15T02:58:47;100125.65;;;8.02;87.38
74790;BME280;63318;52.406;13.416;2023-04-15T03:01:16;100127.54;;;8.03;87.31
74790;BME280;63318;52.406;13.416;2023-04-15T03:03:45;100128.02;;;8.04;87.41
74790;BME280;63318;52.406;13.416;2023-04-15T03:06:13;100129.91;;;8.05;87.59
74790;BME280;63318;52.406;13.416;2023-04-15T03:08:42;100133.24;;;8.06;87.75
74790;BME280;63318;52.406;13.416;2023-04-15T03:11:10;100131.58;;;8.07;87.57
74790;BME280;63318;52.406;13.416;2023-04-15T03:13:39;100132.58;;;8.07;87.54
74790;BME280;63318;52.406;13.416;2023-04-15T03:16:08;100131.38;;;8.08;87.58
74790;BME280;63318;52.406;13.416;2023-04-15T03:18:37;100131.14;;;8.09;87.46
74790;BME280;63318;52.406;13.416;2023-04-15T03:21:06;100136.73;;;8.10;87.48
74790;BME280;63318;52.406;13.416;2023-04-15T03:23:34;100134.96;;;8.11;87.56
74790;BME280;63318;52.406;13.416;2023-04-15T03:26:04;100137.12;;;8.11;87.42
74790;BME280;63318;52.406;13.416;2023-04-15T03:28:32;100132.91;;;8.12;87.50
74790;BME280;63318;52.406;13.416;2023-04-15T03:31:01;100140.56;;;8.12;87.64
74790;BME280;63318;52.406;13.416;2023-04-15T03:33:29;100137.07;;;8.13;87.44
74790;BME280;63318;52.406;13.416;2023-04-15T03:35:58;100139.29;;;8.14;87.52
74790;BME280;63318;52.406;13.416;2023-04-15T03:38:27;100138.30;;;8.14;87.64
74790;BME280;63318;52.406;13.416;2023-04-15T03:40:56;100135.27;;;8.15;87.46
74790;BME280;63318;52.406;13.416;2023-04-15T03:43:24;100129.45;;;8.15;87.70
74790;BME280;63318;52.406;13.416;2023-04-15T03:45:54;100132.98;;;8.16;87.58
74790;BME280;63318;52.406;13.416;2023-04-15T03:48:23;100132.38;;;8.16;87.65
74790;BME280;63318;52.406;13.416;2023-04-15T03:50:53;100133.98;;;8.18;87.51
74790;BME280;63318;52.406;13.416;2023-04-15T03:53:22;100135.41;;;8.18;87.50
74790;BME280;63318;52.406;13.416;2023-04-15T03:55:51;100136.77;;;8.20;87.63
74790;BME280;63318;52.406;13.416;2023-04-15T03:58:20;100142.51;;;8.21;87.55
74790;BME280;63318;52.406;13.416;2023-04-15T04:00:49;100142.18;;;8.21;87.66
74790;BME280;63318;52.406;13.416;2023-04-15T04:03:18;100145.01;;;8.23;87.52
74790;BME280;63318;52.406;13.416;2023-04-15T04:05:47;100143.19;;;8.24;87.52
74790;BME280;63318;52.406;13.416;2023-04-15T04:08:16;100144.04;;;8.26;87.75
74790;BME280;63318;52.406;13.416;2023-04-15T04:10:45;100144.11;;;8.26;87.79
74790;BME280;63318;52.406;13.416;2023-04-15T04:13:13;100149.47;;;8.27;87.64
74790;BME280;63318;52.406;13.416;2023-04-15T04:15:42;100144.06;;;8.29;87.86
74790;BME280;63318;52.406;13.416;2023-04-15T04:18:11;100151.47;;;8.29;87.51
74790;BME280;63318;52.406;13.416;2023-04-15T04:20:41;100148.42;;;8.30;87.78
74790;BME280;63318;52.406;13.416;2023-04-15T04:23:09;100155.24;;;8.31;87.80
74790;BME280;63318;52.406;13.416;2023-04-15T04:25:38;100150.27;;;8.32;87.75
74790;BME280;63318;52.406;13.416;2023-04-15T04:28:06;100151.38;;;8.33;88.03
74790;BME280;63318;52.406;13.416;2023-04-15T04:30:36;100149.87;;;8.34;87.72
74790;BME280;63318;52.406;13.416;2023-04-15T04:33:05;100148.10;;;8.35;87.90
74790;BME280;63318;52.406;13.416;2023-04-15T04:35:35;100147.11;;;8.36;87.72
74790;BME280;63318;52.406;13.416;2023-04-15T04:38:03;100150.38;;;8.37;87.95
74790;BME280;63318;52.406;13.416;2023-04-15T04:40:33;100148.56;;;8.39;87.78
74790;BME280;63318;52.406;13.416;2023-04-15T04:43:02;100150.34;;;8.41;87.81
74790;BME280;63318;52.406;13.416;2023-04-15T04:45:31;100152.84;;;8.43;87.93
74790;BME280;63318;52.406;13.416;2023-04-15T04:48:00;100148.77;;;8.44;87.95
74790;BME280;63318;52.406;13.416;2023-04-15T04:50:28;100152.33;;;8.44;87.67
74790;BME280;63318;52.406;13.416;2023-04-15T04:52:57;100155.16;;;8.46;87.65
74790;BME280;63318;52.406;13.416;2023-04-15T04:55:26;100153.88;;;8.47;87.69
74790;BME280;63318;52.406;13.416;2023-04-15T04:57:55;100159.47;;;8.49;87.59
74790;BME280;63318;52.406;13.416;2023-04-15T05:00:25;100159.70;;;8.50;87.85
74790;BME280;63318;52.406;13.416;2023-04-15T05:02:54;100161.64;;;8.51;87.96
74790;BME280;63318;52.406;13.416;2023-04-15T05:05:23;100161.20;;;8.52;87.82
74790;BME280;63318;52.406;13.416;2023-04-15T05:07:53;100164.08;;;8.54;87.86
74790;BME280;63318;52.406;13.416;2023-04-15T05:10:22;100169.02;;;8.55;88.02
74790;BME280;63318;52.406;13.416;2023-04-15T05:12:52;100172.33;;;8.56;87.84
74790;BME280;63318;52.406;13.416;2023-04-15T05:15:22;100172.84;;;8.57;87.86
74790;BME280;63318;52.406;13.416;2023-04-15T05:17:51;100175.27;;;8.58;87.62
74790;BME280;63318;52.406;13.416;2023-04-15T05:20:20;100176.32;;;8.59;87.76
74790;BME280;63318;52.406;13.416;2023-04-15T05:22:49;100180.97;;;8.60;87.70
74790;BME280;63318;52.406;13.416;2023-04-15T05:25:20;100181.70;;;8.61;87.85
74790;BME280;63318;52.406;13.416;2023-04-15T05:27:49;100184.30;;;8.62;87.92
74790;BME280;63318;52.406;13.416;2023-04-15T05:30:18;100188.67;;;8.64;87.74
74790;BME280;63318;52.406;13.416;2023-04-15T05:32:47;100185.90;;;8.65;87.97
74790;BME280;63318;52.406;13.416;2023-04-15T05:35:16;100187.57;;;8.66;87.93
74790;BME280;63318;52.406;13.416;2023-04-15T05:37:47;100184.68;;;8.67;87.81
74790;BME280;63318;52.406;13.416;2023-04-15T05:40:16;100185.70;;;8.69;87.78
74790;BME280;63318;52.406;13.416;2023-04-15T05:42:44;100186.58;;;8.70;87.80
74790;BME280;63318;52.406;13.416;2023-04-15T05:45:13;100185.76;;;8.73;87.94
74790;BME280;63318;52.406;13.416;2023-04-15T05:47:43;100180.20;;;8.75;87.83
74790;BME280;63318;52.406;13.416;2023-04-15T05:50:13;100180.98;;;8.79;87.94
74790;BME280;63318;52.406;13.416;2023-04-15T05:52:42;100180.22;;;8.84;87.82
74790;BME280;63318;52.406;13.416;2023-04-15T05:55:13;100176.50;;;8.88;87.80
74790;BME280;63318;52.406;13.416;2023-04-15T05:57:42;100175.85;;;8.91;87.91
74790;BME280;63318;52.406;13.416;2023-04-15T06:00:16;100176.89;;;8.94;87.71
74790;BME280;63318;52.406;13.416;2023-04-15T06:02:44;100175.11;;;8.97;88.00
74790;BME280;63318;52.406;13.416;2023-04-15T06:05:13;100176.84;;;9.00;87.75
74790;BME280;63318;52.406;13.416;2023-04-15T06:07:42;100182.99;;;9.02;87.70
74790;BME280;63318;52.406;13.416;2023-04-15T06:10:12;100184.86;;;9.05;87.63
74790;BME280;63318;52.406;13.416;2023-04-15T06:12:40;100184.65;;;9.07;87.62
74790;BME280;63318;52.406;13.416;2023-04-15T06:15:10;100183.48;;;9.10;87.65
74790;BME280;63318;52.406;13.416;2023-04-15T06:17:41;100180.48;;;9.11;87.59
74790;BME280;63318;52.406;13.416;2023-04-15T06:20:11;100187.40;;;9.14;87.51
74790;BME280;63318;52.406;13.416;2023-04-15T06:22:40;100186.23;;;9.16;87.49
74790;BME280;63318;52.406;13.416;2023-04-15T06:25:11;100183.63;;;9.18;87.58
74790;BME280;63318;52.406;13.416;2023-04-15T06:27:40;100190.90;;;9.21;87.54
74790;BME280;63318;52.406;13.416;2023-04-15T06:30:11;100192.23;;;9.23;87.54
74790;BME280;63318;52.406;13.416;2023-04-15T06:32:40;100193.55;;;9.26;87.18
74790;BME280;63318;52.406;13.416;2023-04-15T06:35:10;100199.81;;;9.28;87.29
74790;BME280;63318;52.406;13.416;2023-04-15T06:37:39;100204.30;;;9.31;87.10
74790;BME280;63318;52.406;13.416;2023-04-15T06:40:10;100209.00;;;9.36;87.37
74790;BME280;63318;52.406;13.416;2023-04-15T06:42:39;100212.33;;;9.42;87.12
74790;BME280;63318;52.406;13.416;2023-04-15T06:45:09;100211.70;;;9.48;87.30
74790;BME280;63318;52.406;13.416;2023-04-15T06:47:40;100216.23;;;9.56;86.89
74790;BME280;63318;52.406;13.416;2023-04-15T06:50:10;100221.77;;;9.62;86.95
74790;BME280;63318;52.406;13.416;2023-04-15T06:52:38;100223.41;;;9.67;86.74
74790;BME280;63318;52.406;13.416;2023-04-15T06:55:08;100223.74;;;9.70;86.74
74790;BME280;63318;52.406;13.416;2023-04-15T06:57:37;100230.17;;;9.74;86.57
74790;BME280;63318;52.406;13.416;2023-04-15T07:00:08;100225.67;;;9.77;86.75
74790;BME280;63318;52.406;13.416;2023-04-15T07:02:37;100227.93;;;9.83;86.83
74790;BME280;63318;52.406;13.416;2023-04-15T07:05:07;100231.23;;;9.87;86.54
74790;BME280;63318;52.406;13.416;2023-04-15T07:07:36;100231.05;;;9.90;86.38
74790;BME280;63318;52.406;13.416;2023-04-15T07:10:08;100236.77;;;9.93;86.50
74790;BME280;63318;52.406;13.416;2023-04-15T07:12:37;100236.83;;;9.94;86.28
74790;BME280;63318;52.406;13.416;2023-04-15T07:15:07;100237.48;;;9.96;86.24
74790;BME280;63318;52.406;13.416;2023-04-15T07:17:36;100242.63;;;9.97;86.12
74790;BME280;63318;52.406;13.416;2023-04-15T07:20:05;100247.58;;;9.98;86.04
74790;BME280;63318;52.406;13.416;2023-04-15T07:22:37;100250.46;;;9.97;85.91
74790;BME280;63318;52.406;13.416;2023-04-15T07:25:08;100250.13;;;9.96;85.67
74790;BME280;63318;52.406;13.416;2023-04-15T07:27:37;100250.19;;;9.96;85.64
74790;BME280;63318;52.406;13.416;2023-04-15T07:30:08;100254.23;;;9.95;85.62
74790;BME280;63318;52.406;13.416;2023-04-15T07:32:37;100251.91;;;9.94;85.50
74790;BME280;63318;52.406;13.416;2023-04-15T07:35:07;100254.46;;;9.95;85.75
74790;BME280;63318;52.406;13.416;2023-04-15T07:37:36;100255.02;;;9.95;85.51
74790;BME280;63318;52.406;13.416;2023-04-15T07:40:07;100256.58;;;9.95;85.44
74790;BME280;63318;52.406;13.416;2023-04-15T07:42:38;100257.35;;;9.93;85.25
74790;BME280;63318;52.406;13.416;2023-04-15T07:45:09;100258.20;;;9.93;85.28
74790;BME280;63318;52.406;13.416;2023-04-15T07:47:38;100261.90;;;9.94;85.30
74790;BME280;63318;52.406;13.416;2023-04-15T07:50:08;100265.39;;;9.98;85.11
74790;BME280;63318;52.406;13.416;2023-04-15T07:52:37;100264.20;;;10.02;85.04
74790;BME280;63318;52.406;13.416;2023-04-15T07:55:08;100265.20;;;10.04;85.09
74790;BME280;63318;52.406;13.416;2023-04-15T07:57:38;100264.20;;;10.07;85.09
74790;BME280;63318;52.406;13.416;2023-04-15T08:00:09;100267.19;;;10.10;85.14
74790;BME280;63318;52.406;13.416;2023-04-15T08:02:38;100266.36;;;10.11;85.05
74790;BME280;63318;52.406;13.416;2023-04-15T08:05:09;100268.53;;;10.13;85.27
74790;BME280;63318;52.406;13.416;2023-04-15T08:07:38;100267.30;;;10.15;85.29
74790;BME280;63318;52.406;13.416;2023-04-15T08:10:11;100271.25;;;10.17;85.26
74790;BME280;63318;52.406;13.416;2023-04-15T08:12:40;100274.01;;;10.19;85.21
74790;BME280;63318;52.406;13.416;2023-04-15T08:15:12;100274.23;;;10.21;85.32
74790;BME280;63318;52.406;13.416;2023-04-15T08:17:40;100276.16;;;10.22;85.37
74790;BME280;63318;52.406;13.416;2023-04-15T08:20:14;100277.72;;;10.22;85.03
74790;BME280;63318;52.406;13.416;2023-04-15T08:22:42;100279.33;;;10.22;85.06
74790;BME280;63318;52.406;13.416;2023-04-15T08:25:11;100281.10;;;10.23;84.97
74790;BME280;63318;52.406;13.416;2023-04-15T08:27:39;100286.33;;;10.23;85.24
74790;BME280;63318;52.406;13.416;2023-04-15T08:30:11;100291.36;;;10.26;85.02
74790;BME280;63318;52.406;13.416;2023-04-15T08:32:40;100290.88;;;10.33;85.15
74790;BME280;63318;52.406;13.416;2023-04-15T08:35:09;100290.81;;;10.36;84.83
74790;BME280;63318;52.406;13.416;2023-04-15T08:37:38;100290.48;;;10.38;84.95
74790;BME280;63318;52.406;13.416;2023-04-15T08:40:10;100296.08;;;10.39;84.96
74790;BME280;63318;52.406;13.416;2023-04-15T08:42:43;100296.97;;;10.39;84.85
74790;BME280;63318;52.406;13.416;2023-04-15T08:45:10;100295.95;;;10.42;84.90
74790;BME280;63318;52.406;13.416;2023-04-15T08:47:39;100294.23;;;10.44;84.79
74790;BME280;63318;52.406;13.416;2023-04-15T08:50:13;100291.41;;;10.41;84.64
74790;BME280;63318;52.406;13.416;2023-04-15T08:52:44;100301.73;;;10.42;84.64
74790;BME280;63318;52.406;13.416;2023-04-15T08:55:14;100303.23;;;10.42;84.58
74790;BME280;63318;52.406;13.416;2023-04-15T08:57:43;100302.20;;;10.40;84.40
74790;BME280;63318;52.406;13.416;2023-04-15T09:00:15;100303.57;;;10.41;84.42
74790;BME280;63318;52.406;13.416;2023-04-15T09:02:44;100300.55;;;10.44;84.24
74790;BME280;63318;52.406;13.416;2023-04-15T09:05:13;100296.04;;;10.48;84.31
74790;BME280;63318;52.406;13.416;2023-04-15T09:07:43;100301.73;;;10.53;84.17
74790;BME280;63318;52.406;13.416;2023-04-15T09:10:13;100300.45;;;10.56;84.03
74790;BME280;63318;52.406;13.416;2023-04-15T09:12:42;100301.77;;;10.57;84.06
74790;BME280;63318;52.406;13.416;2023-04-15T09:15:12;100302.71;;;10.60;83.93
74790;BME280;63318;52.406;13.416;2023-04-15T09:17:44;100302.36;;;10.61;83.60
74790;BME280;63318;52.406;13.416;2023-04-15T09:20:12;100305.80;;;10.64;83.56
74790;BME280;63318;52.406;13.416;2023-04-15T09:22:44;100308.20;;;10.64;83.36
74790;BME280;63318;52.406;13.416;2023-04-15T09:25:39;100311.69;;;10.64;83.59
74790;BME280;63318;52.406;13.416;2023-04-15T09:28:08;100316.02;;;10.63;83.46
74790;BME280;63318;52.406;13.416;2023-04-15T09:30:37;100321.59;;;10.63;83.38
74790;BME280;63318;52.406;13.416;2023-04-15T09:33:06;100324.46;;;10.66;83.50
74790;BME280;63318;52.406;13.416;2023-04-15T09:35:35;100326.28;;;10.68;83.31
74790;BME280;63318;52.406;13.416;2023-04-15T09:38:06;100331.23;;;10.67;83.37
74790;BME280;63318;52.406;13.416;2023-04-15T09:40:36;100332.52;;;10.66;83.58
74790;BME280;63318;52.406;13.416;2023-04-15T09:43:06;100334.01;;;10.67;83.65
74790;BME280;63318;52.406;13.416;2023-04-15T09:45:36;100332.89;;;10.68;83.68
74790;BME280;63318;52.406;13.416;2023-04-15T09:48:18;100337.02;;;10.67;83.49
74790;BME280;63318;52.406;13.416;2023-04-15T09:50:48;100342.40;;;10.65;83.57
74790;BME280;63318;52.406;13.416;2023-04-15T09:53:23;100341.91;;;10.65;83.64
74790;BME280;63318;52.406;13.416;2023-04-15T09:55:56;100344.75;;;10.66;83.60
74790;BME280;63318;52.406;13.416;2023-04-15T09:58:26;100348.36;;;10.66;83.65
74790;BME280;63318;52.406;13.416;2023-04-15T10:00:58;100348.23;;;10.67;83.74
74790;BME280;63318;52.406;13.416;2023-04-15T10:03:28;100354.16;;;10.70;83.74
74790;BME280;63318;52.406;13.416;2023-04-15T10:05:59;100357.95;;;10.71;83.45
74790;BME280;63318;52.406;13.416;2023-04-15T10:08:30;100361.11;;;10.70;83.53
74790;BME280;63318;52.406;13.416;2023-04-15T10:11:02;100363.83;;;10.69;83.51
74790;BME280;63318;52.406;13.416;2023-04-15T10:13:32;100363.91;;;10.68;83.40
74790;BME280;63318;52.406;13.416;2023-04-15T10:16:04;100361.35;;;10.66;83.42
74790;BME280;63318;52.406;13.416;2023-04-15T10:18:37;100365.75;;;10.64;83.59
74790;BME280;63318;52.406;13.416;2023-04-15T10:21:04;100369.42;;;10.61;83.47
74790;BME280;63318;52.406;13.416;2023-04-15T10:23:34;100372.88;;;10.58;83.61
74790;BME280;63318;52.406;13.416;2023-04-15T10:26:03;100370.60;;;10.57;83.55
74790;BME280;63318;52.406;13.416;2023-04-15T10:28:33;100370.61;;;10.57;83.59
74790;BME280;63318;52.406;13.416;2023-04-15T10:31:05;100370.67;;;10.55;83.63
74790;BME280;63318;52.406;13.416;2023-04-15T10:33:35;100373.45;;;10.55;83.73
74790;BME280;63318;52.406;13.416;2023-04-15T10:36:05;100371.06;;;10.54;83.66
74790;BME280;63318;52.406;13.416;2023-04-15T10:38:36;100372.51;;;10.55;83.69
74790;BME280;63318;52.406;13.416;2023-04-15T10:41:15;100376.50;;;10.54;83.83
74790;BME280;63318;52.406;13.416;2023-04-15T10:43:49;100373.46;;;10.53;83.78
74790;BME280;63318;52.406;13.416;2023-04-15T10:46:20;100371.80;;;10.55;83.78
74790;BME280;63318;52.406;13.416;2023-04-15T10:48:50;100375.27;;;10.56;83.90
74790;BME280;63318;52.406;13.416;2023-04-15T10:51:28;100381.88;;;10.57;83.91
74790;BME280;63318;52.406;13.416;2023-04-15T10:54:00;100378.66;;;10.58;83.95
74790;BME280;63318;52.406;13.416;2023-04-15T10:56:30;100385.14;;;10.60;84.02
74790;BME280;63318;52.406;13.416;2023-04-15T10:59:01;100384.54;;;10.61;83.92
74790;BME280;63318;52.406;13.416;2023-04-15T11:01:56;100390.98;;;10.62;83.97
74790;BME280;63318;52.406;13.416;2023-04-15T11:04:52;100388.97;;;10.63;83.94
74790;BME280;63318;52.406;13.416;2023-04-15T11:10:51;100390.56;;;10.67;83.92
74790;BME280;63318;52.406;13.416;2023-04-15T11:13:22;100398.41;;;10.63;83.88
74790;BME280;63318;52.406;13.416;2023-04-15T11:15:53;100403.59;;;10.63;84.11
74790;BME280;63318;52.406;13.416;2023-04-15T11:18:25;100406.03;;;10.63;84.06
74790;BME280;63318;52.406;13.416;2023-04-15T11:20:56;100403.17;;;10.64;84.11
74790;BME280;63318;52.406;13.416;2023-04-15T11:23:36;100410.02;;;10.63;84.12
74790;BME280;63318;52.406;13.416;2023-04-15T11:26:06;100412.52;;;10.62;84.05
74790;BME280;63318;52.406;13.416;2023-04-15T11:28:35;100416.04;;;10.61;83.99
74790;BME280;63318;52.406;13.416;2023-04-15T11:31:12;100418.92;;;10.61;84.10
74790;BME280;63318;52.406;13.416;2023-04-15T11:33:52;100421.98;;;10.59;84.22
74790;BME280;63318;52.406;13.416;2023-04-15T11:36:21;100421.94;;;10.59;84.31
74790;BME280;63318;52.406;13.416;2023-04-15T11:38:51;100423.98;;;10.59;84.28
74790;BME280;63318;52.406;13.416;2023-04-15T11:41:23;100428.20;;;10.60;84.13
74790;BME280;63318;52.406;13.416;2023-04-15T11:43:50;100426.60;;;10.58;84.23
74790;BME280;63318;52.406;13.416;2023-04-15T11:46:19;100432.05;;;10.57;84.31
74790;BME280;63318;52.406;13.416;2023-04-15T11:48:47;100435.26;;;10.58;84.37
74790;BME280;63318;52.406;13.416;2023-04-15T11:51:16;100435.32;;;10.59;84.37
74790;BME280;63318;52.406;13.416;2023-04-15T11:53:46;100438.97;;;10.62;84.55
74790;BME280;63318;52.406;13.416;2023-04-15T11:56:20;100445.42;;;10.65;84.57
74790;BME280;63318;52.406;13.416;2023-04-15T11:58:51;100445.85;;;10.67;84.47
74790;BME280;63318;52.406;13.416;2023-04-15T12:01:20;100445.40;;;10.69;84.53
74790;BME280;63318;52.406;13.416;2023-04-15T12:03:50;100444.06;;;10.70;84.66
74790;BME280;63318;52.406;13.416;2023-04-15T12:06:22;100445.73;;;10.70;84.67
74790;BME280;63318;52.406;13.416;2023-04-15T12:09:06;100446.79;;;10.71;84.66
74790;BME280;63318;52.406;13.416;2023-04-15T12:11:39;100454.01;;;10.73;84.71
74790;BME280;63318;52.406;13.416;2023-04-15T12:14:15;100451.05;;;10.74;84.63
74790;BME280;63318;52.406;13.416;2023-04-15T12:16:46;100456.16;;;10.74;84.77
74790;BME280;63318;52.406;13.416;2023-04-15T12:19:16;100457.56;;;10.75;84.82
74790;BME280;63318;52.406;13.416;2023-04-15T12:21:48;100460.60;;;10.77;84.85
74790;BME280;63318;52.406;13.416;2023-04-15T12:24:21;100460.27;;;10.76;84.86
74790;BME280;63318;52.406;13.416;2023-04-15T12:26:51;100459.05;;;10.77;84.89
74790;BME280;63318;52.406;13.416;2023-04-15T12:29:24;100463.75;;;10.79;84.83
74790;BME280;63318;52.406;13.416;2023-04-15T12:31:54;100463.98;;;10.82;84.94
74790;BME280;63318;52.406;13.416;2023-04-15T12:34:29;100469.91;;;10.84;84.99
74790;BME280;63318;52.406;13.416;2023-04-15T12:37:00;100470.78;;;10.87;85.02
74790;BME280;63318;52.406;13.416;2023-04-15T12:39:30;100474.56;;;10.90;85.12
74790;BME280;63318;52.406;13.416;2023-04-15T12:42:02;100478.39;;;10.93;85.02
74790;BME280;63318;52.406;13.416;2023-04-15T12:44:32;100476.05;;;10.97;85.07
74790;BME280;63318;52.406;13.416;2023-04-15T12:47:02;100478.36;;;10.99;85.08
74790;BME280;63318;52.406;13.416;2023-04-15T12:49:32;100478.20;;;11.01;85.02
74790;BME280;63318;52.406;13.416;2023-04-15T12:52:01;100479.41;;;11.03;85.06
74790;BME280;63318;52.406;13.416;2023-04-15T12:54:31;100482.74;;;11.05;85.00
74790;BME280;63318;52.406;13.416;2023-04-15T12:57:00;100485.05;;;11.08;85.08
74790;BME280;63318;52.406;13.416;2023-04-15T12:59:29;100490.95;;;11.09;84.91
74790;BME280;63318;52.406;13.416;2023-04-15T13:01:58;100491.33;;;11.10;85.01